DAUO/ELU METAR and TAF weather

Enter ICAO airport designator
Station Type Date Time Source
DAUO METAR 2019/08/25 07:00 UTC NOAA

DAUO 250700Z 10012KT 9999 FEW040 28/19 Q1012


Station Type Date Time Source
DAUO Decoded METAR 2019/08/25 07:00 UTC NOAA

Station name not available
Aug 25, 2019 - 03:00 AM EDT / 2019.08.25 0700 UTC
Wind: from the E (100 degrees) at 14 MPH (12 KT):0
Visibility: greater than 7 mile(s):0
Sky conditions: mostly clear
Temperature: 82 F (28 C)
Dew Point: 66 F (19 C)
Relative Humidity: 58%
Pressure (altimeter): 29.88 in. Hg (1012 hPa)
ob: DAUO 250700Z 10012KT 9999 FEW040 28/19 Q1012
cycle: 7

Station Type Date Time Source
DAUO TAF 2017/11/09 18:03 UTC NOAA

TAF DAUO 091700Z 0918/1009 28010KT 9999 SCT033 SCT100 PROB30
TEMPO 0918/0924 28015G25KT 5000 -TSRA FEW036CB

Example: see airport list